sensor_id;sensor_type;location;lat;lon;timestamp;temperature;humidity
42479;DHT22;28110;47.080;9.476;2024-01-25T00:00:06;11.60;99.90
42479;DHT22;28110;47.080;9.476;2024-01-25T00:02:31;11.60;99.90
42479;DHT22;28110;47.080;9.476;2024-01-25T00:04:57;11.40;99.90
42479;DHT22;28110;47.080;9.476;2024-01-25T00:07:22;11.50;99.90
42479;DHT22;28110;47.080;9.476;2024-01-25T00:09:48;11.40;99.90
42479;DHT22;28110;47.080;9.476;2024-01-25T00:12:13;11.40;99.90
42479;DHT22;28110;47.080;9.476;2024-01-25T00:14:39;11.30;99.90
42479;DHT22;28110;47.080;9.476;2024-01-25T00:17:05;11.30;99.90
42479;DHT22;28110;47.080;9.476;2024-01-25T00:19:30;11.30;99.90
42479;DHT22;28110;47.080;9.476;2024-01-25T00:21:56;11.20;99.90
42479;DHT22;28110;47.080;9.476;2024-01-25T00:24:22;11.10;99.90
42479;DHT22;28110;47.080;9.476;2024-01-25T00:26:47;11.10;99.90
42479;DHT22;28110;47.080;9.476;2024-01-25T00:29:13;11.10;99.90
42479;DHT22;28110;47.080;9.476;2024-01-25T00:31:40;11.00;99.90
42479;DHT22;28110;47.080;9.476;2024-01-25T00:34:06;11.00;99.90
42479;DHT22;28110;47.080;9.476;2024-01-25T00:36:32;10.90;99.90
42479;DHT22;28110;47.080;9.476;2024-01-25T00:38:58;10.90;99.90
42479;DHT22;28110;47.080;9.476;2024-01-25T00:41:23;10.90;99.90
42479;DHT22;28110;47.080;9.476;2024-01-25T00:43:49;10.90;99.90
42479;DHT22;28110;47.080;9.476;2024-01-25T00:46:15;10.90;99.90
42479;DHT22;28110;47.080;9.476;2024-01-25T00:48:41;11.00;99.90
42479;DHT22;28110;47.080;9.476;2024-01-25T00:51:10;11.00;99.90
42479;DHT22;28110;47.080;9.476;2024-01-25T00:53:37;11.20;99.90
42479;DHT22;28110;47.080;9.476;2024-01-25T00:56:03;11.30;99.90
42479;DHT22;28110;47.080;9.476;2024-01-25T00:58:29;11.40;99.90
42479;DHT22;28110;47.080;9.476;2024-01-25T01:00:54;11.50;99.90
42479;DHT22;28110;47.080;9.476;2024-01-25T01:03:20;11.50;99.90
42479;DHT22;28110;47.080;9.476;2024-01-25T01:05:46;11.60;99.90
42479;DHT22;28110;47.080;9.476;2024-01-25T01:08:12;11.50;99.90
42479;DHT22;28110;47.080;9.476;2024-01-25T01:10:38;11.40;99.90
42479;DHT22;28110;47.080;9.476;2024-01-25T01:13:03;11.40;99.90
42479;DHT22;28110;47.080;9.476;2024-01-25T01:15:29;11.30;99.90
42479;DHT22;28110;47.080;9.476;2024-01-25T01:17:54;11.40;99.90
42479;DHT22;28110;47.080;9.476;2024-01-25T01:20:20;11.40;99.90
42479;DHT22;28110;47.080;9.476;2024-01-25T01:22:46;11.40;99.90
42479;DHT22;28110;47.080;9.476;2024-01-25T01:25:11;11.40;99.90
42479;DHT22;28110;47.080;9.476;2024-01-25T01:27:37;11.40;99.90
42479;DHT22;28110;47.080;9.476;2024-01-25T01:30:03;11.30;99.90
42479;DHT22;28110;47.080;9.476;2024-01-25T01:32:29;11.40;99.90
42479;DHT22;28110;47.080;9.476;2024-01-25T01:34:54;11.50;99.90
42479;DHT22;28110;47.080;9.476;2024-01-25T01:37:20;11.60;99.90
42479;DHT22;28110;47.080;9.476;2024-01-25T01:39:45;11.50;99.90
42479;DHT22;28110;47.080;9.476;2024-01-25T01:42:11;11.40;99.90
42479;DHT22;28110;47.080;9.476;2024-01-25T01:44:36;11.40;99.90
42479;DHT22;28110;47.080;9.476;2024-01-25T01:47:02;11.40;99.90
42479;DHT22;28110;47.080;9.476;2024-01-25T01:49:28;11.40;99.90
42479;DHT22;28110;47.080;9.476;2024-01-25T01:51:54;11.30;99.90
42479;DHT22;28110;47.080;9.476;2024-01-25T01:54:20;11.20;99.90
42479;DHT22;28110;47.080;9.476;2024-01-25T01:56:46;11.20;99.90
42479;DHT22;28110;47.080;9.476;2024-01-25T01:59:12;11.20;99.90
42479;DHT22;28110;47.080;9.476;2024-01-25T02:01:37;11.20;99.90
42479;DHT22;28110;47.080;9.476;2024-01-25T02:04:04;11.30;99.90
42479;DHT22;28110;47.080;9.476;2024-01-25T02:06:30;11.30;99.90
42479;DHT22;28110;47.080;9.476;2024-01-25T02:08:55;11.60;99.90
42479;DHT22;28110;47.080;9.476;2024-01-25T02:11:24;11.80;99.90
42479;DHT22;28110;47.080;9.476;2024-01-25T02:13:50;11.90;99.90
42479;DHT22;28110;47.080;9.476;2024-01-25T02:16:16;11.90;99.90
42479;DHT22;28110;47.080;9.476;2024-01-25T02:18:42;11.80;99.90
42479;DHT22;28110;47.080;9.476;2024-01-25T02:21:08;11.70;99.90
42479;DHT22;28110;47.080;9.476;2024-01-25T02:23:34;11.60;99.90
42479;DHT22;28110;47.080;9.476;2024-01-25T02:25:59;11.60;99.90
42479;DHT22;28110;47.080;9.476;2024-01-25T02:28:25;11.50;99.90
42479;DHT22;28110;47.080;9.476;2024-01-25T02:30:51;11.40;99.90
42479;DHT22;28110;47.080;9.476;2024-01-25T02:33:16;11.30;99.90
42479;DHT22;28110;47.080;9.476;2024-01-25T02:35:42;11.30;99.90
42479;DHT22;28110;47.080;9.476;2024-01-25T02:38:08;11.30;99.90
42479;DHT22;28110;47.080;9.476;2024-01-25T02:40:33;11.20;99.90
42479;DHT22;28110;47.080;9.476;2024-01-25T02:42:59;11.30;99.90
42479;DHT22;28110;47.080;9.476;2024-01-25T02:45:24;11.30;99.90
42479;DHT22;28110;47.080;9.476;2024-01-25T02:47:50;11.30;99.90
42479;DHT22;28110;47.080;9.476;2024-01-25T02:50:16;11.20;99.90
42479;DHT22;28110;47.080;9.476;2024-01-25T02:52:42;11.10;99.90
42479;DHT22;28110;47.080;9.476;2024-01-25T02:55:07;11.10;99.90
42479;DHT22;28110;47.080;9.476;2024-01-25T02:57:33;11.00;99.90
42479;DHT22;28110;47.080;9.476;2024-01-25T02:59:59;11.00;99.90
42479;DHT22;28110;47.080;9.476;2024-01-25T03:02:24;11.00;99.90
42479;DHT22;28110;47.080;9.476;2024-01-25T03:04:50;11.00;99.90
42479;DHT22;28110;47.080;9.476;2024-01-25T03:07:16;10.90;99.90
42479;DHT22;28110;47.080;9.476;2024-01-25T03:09:41;10.80;99.90
42479;DHT22;28110;47.080;9.476;2024-01-25T03:12:07;10.80;99.90
42479;DHT22;28110;47.080;9.476;2024-01-25T03:14:33;10.80;99.90
42479;DHT22;28110;47.080;9.476;2024-01-25T03:16:59;10.80;99.90
42479;DHT22;28110;47.080;9.476;2024-01-25T03:19:26;10.80;99.90
42479;DHT22;28110;47.080;9.476;2024-01-25T03:21:52;10.80;99.90
42479;DHT22;28110;47.080;9.476;2024-01-25T03:24:18;10.80;99.90
42479;DHT22;28110;47.080;9.476;2024-01-25T03:26:43;10.80;99.90
42479;DHT22;28110;47.080;9.476;2024-01-25T03:29:09;10.70;99.90
42479;DHT22;28110;47.080;9.476;2024-01-25T03:31:35;10.60;99.90
42479;DHT22;28110;47.080;9.476;2024-01-25T03:34:02;10.70;99.90
42479;DHT22;28110;47.080;9.476;2024-01-25T03:36:27;10.60;99.90
42479;DHT22;28110;47.080;9.476;2024-01-25T03:38:53;10.60;99.90
42479;DHT22;28110;47.080;9.476;2024-01-25T03:41:18;10.50;99.90
42479;DHT22;28110;47.080;9.476;2024-01-25T03:43:44;10.50;99.90
42479;DHT22;28110;47.080;9.476;2024-01-25T03:46:11;10.40;99.90
42479;DHT22;28110;47.080;9.476;2024-01-25T03:48:37;10.40;99.90
42479;DHT22;28110;47.080;9.476;2024-01-25T03:51:02;10.40;99.90
42479;DHT22;28110;47.080;9.476;2024-01-25T03:53:28;10.40;99.90
42479;DHT22;28110;47.080;9.476;2024-01-25T03:55:53;10.30;99.90
42479;DHT22;28110;47.080;9.476;2024-01-25T03:58:19;10.30;99.90
42479;DHT22;28110;47.080;9.476;2024-01-25T04:00:44;10.30;99.90
42479;DHT22;28110;47.080;9.476;2024-01-25T04:03:10;10.30;99.90
42479;DHT22;28110;47.080;9.476;2024-01-25T04:05:36;10.30;99.90
42479;DHT22;28110;47.080;9.476;2024-01-25T04:08:03;10.30;99.90
42479;DHT22;28110;47.080;9.476;2024-01-25T04:10:29;10.30;99.90
42479;DHT22;28110;47.080;9.476;2024-01-25T04:12:54;10.20;99.90
42479;DHT22;28110;47.080;9.476;2024-01-25T04:15:20;10.20;99.90
42479;DHT22;28110;47.080;9.476;2024-01-25T04:17:45;10.20;99.90
42479;DHT22;28110;47.080;9.476;2024-01-25T04:20:11;10.20;99.90
42479;DHT22;28110;47.080;9.476;2024-01-25T04:22:37;10.10;99.90
42479;DHT22;28110;47.080;9.476;2024-01-25T04:25:03;10.10;99.90
42479;DHT22;28110;47.080;9.476;2024-01-25T04:27:30;10.10;99.90
42479;DHT22;28110;47.080;9.476;2024-01-25T04:29:55;10.10;99.90
42479;DHT22;28110;47.080;9.476;2024-01-25T04:32:21;10.10;99.90
42479;DHT22;28110;47.080;9.476;2024-01-25T04:34:46;10.10;99.90
42479;DHT22;28110;47.080;9.476;2024-01-25T04:37:13;10.10;99.90
42479;DHT22;28110;47.080;9.476;2024-01-25T04:39:39;10.10;99.90
42479;DHT22;28110;47.080;9.476;2024-01-25T04:42:05;10.00;99.90
42479;DHT22;28110;47.080;9.476;2024-01-25T04:44:30;10.10;99.90
42479;DHT22;28110;47.080;9.476;2024-01-25T04:46:56;10.00;99.90
42479;DHT22;28110;47.080;9.476;2024-01-25T04:49:22;10.00;99.90
42479;DHT22;28110;47.080;9.476;2024-01-25T04:51:47;9.90;99.90
42479;DHT22;28110;47.080;9.476;2024-01-25T04:54:13;9.90;99.90
42479;DHT22;28110;47.080;9.476;2024-01-25T04:56:43;9.80;99.90
42479;DHT22;28110;47.080;9.476;2024-01-25T04:59:09;9.80;99.90
42479;DHT22;28110;47.080;9.476;2024-01-25T05:01:34;9.80;99.90
42479;DHT22;28110;47.080;9.476;2024-01-25T05:04:00;9.80;99.90
42479;DHT22;28110;47.080;9.476;2024-01-25T05:06:26;9.70;99.90
42479;DHT22;28110;47.080;9.476;2024-01-25T05:08:51;9.80;99.90
42479;DHT22;28110;47.080;9.476;2024-01-25T05:11:17;9.70;99.90
42479;DHT22;28110;47.080;9.476;2024-01-25T05:13:43;9.70;99.90
42479;DHT22;28110;47.080;9.476;2024-01-25T05:16:08;9.70;99.90
42479;DHT22;28110;47.080;9.476;2024-01-25T05:18:34;9.60;99.90
42479;DHT22;28110;47.080;9.476;2024-01-25T05:20:59;9.60;99.90
42479;DHT22;28110;47.080;9.476;2024-01-25T05:23:25;9.60;99.90
42479;DHT22;28110;47.080;9.476;2024-01-25T05:25:51;9.60;99.90
42479;DHT22;28110;47.080;9.476;2024-01-25T05:28:16;9.60;99.90
42479;DHT22;28110;47.080;9.476;2024-01-25T05:30:42;9.50;99.90
42479;DHT22;28110;47.080;9.476;2024-01-25T05:33:08;9.60;99.90
42479;DHT22;28110;47.080;9.476;2024-01-25T05:35:33;9.60;99.90
42479;DHT22;28110;47.080;9.476;2024-01-25T05:38:00;9.60;99.90
42479;DHT22;28110;47.080;9.476;2024-01-25T05:40:25;9.60;99.90
42479;DHT22;28110;47.080;9.476;2024-01-25T05:42:51;9.60;99.90
42479;DHT22;28110;47.080;9.476;2024-01-25T05:45:16;9.60;99.90
42479;DHT22;28110;47.080;9.476;2024-01-25T05:47:45;9.50;99.90
42479;DHT22;28110;47.080;9.476;2024-01-25T05:50:11;9.60;99.90
42479;DHT22;28110;47.080;9.476;2024-01-25T05:52:36;9.60;99.90
42479;DHT22;28110;47.080;9.476;2024-01-25T05:55:05;9.60;99.90
42479;DHT22;28110;47.080;9.476;2024-01-25T05:57:31;9.50;99.90
42479;DHT22;28110;47.080;9.476;2024-01-25T05:59:57;9.60;99.90
42479;DHT22;28110;47.080;9.476;2024-01-25T06:02:23;9.60;99.90
42479;DHT22;28110;47.080;9.476;2024-01-25T06:04:48;9.60;99.90
42479;DHT22;28110;47.080;9.476;2024-01-25T06:07:14;9.60;99.90
42479;DHT22;28110;47.080;9.476;2024-01-25T06:09:39;9.60;99.90
42479;DHT22;28110;47.080;9.476;2024-01-25T06:12:05;9.60;99.90
42479;DHT22;28110;47.080;9.476;2024-01-25T06:14:31;9.60;99.90
42479;DHT22;28110;47.080;9.476;2024-01-25T06:16:56;9.70;99.90
42479;DHT22;28110;47.080;9.476;2024-01-25T06:19:22;9.70;99.90
42479;DHT22;28110;47.080;9.476;2024-01-25T06:21:47;9.60;99.90
42479;DHT22;28110;47.080;9.476;2024-01-25T06:24:13;9.60;99.90
42479;DHT22;28110;47.080;9.476;2024-01-25T06:26:38;9.60;99.90
42479;DHT22;28110;47.080;9.476;2024-01-25T06:29:04;9.50;99.90
42479;DHT22;28110;47.080;9.476;2024-01-25T06:31:30;9.50;99.90
42479;DHT22;28110;47.080;9.476;2024-01-25T06:33:55;9.50;99.90
42479;DHT22;28110;47.080;9.476;2024-01-25T06:36:22;9.50;99.90
42479;DHT22;28110;47.080;9.476;2024-01-25T06:38:48;9.50;99.90
42479;DHT22;28110;47.080;9.476;2024-01-25T06:41:14;9.50;99.90
42479;DHT22;28110;47.080;9.476;2024-01-25T06:43:40;9.50;99.90
42479;DHT22;28110;47.080;9.476;2024-01-25T06:46:06;9.50;99.90
42479;DHT22;28110;47.080;9.476;2024-01-25T06:48:32;9.60;99.90
42479;DHT22;28110;47.080;9.476;2024-01-25T06:50:57;9.60;99.90
42479;DHT22;28110;47.080;9.476;2024-01-25T06:53:23;9.60;99.90
42479;DHT22;28110;47.080;9.476;2024-01-25T06:55:48;9.70;99.90
42479;DHT22;28110;47.080;9.476;2024-01-25T06:58:14;9.90;99.90
42479;DHT22;28110;47.080;9.476;2024-01-25T07:00:40;9.90;99.90
42479;DHT22;28110;47.080;9.476;2024-01-25T07:03:08;9.90;99.90
42479;DHT22;28110;47.080;9.476;2024-01-25T07:05:33;9.90;99.90
42479;DHT22;28110;47.080;9.476;2024-01-25T07:08:01;9.90;99.90
42479;DHT22;28110;47.080;9.476;2024-01-25T07:10:26;10.00;99.90
42479;DHT22;28110;47.080;9.476;2024-01-25T07:12:52;10.00;99.90
42479;DHT22;28110;47.080;9.476;2024-01-25T07:15:19;9.90;99.90
42479;DHT22;28110;47.080;9.476;2024-01-25T07:17:45;10.00;99.90
42479;DHT22;28110;47.080;9.476;2024-01-25T07:20:10;10.00;99.90
42479;DHT22;28110;47.080;9.476;2024-01-25T07:22:36;10.00;99.90
42479;DHT22;28110;47.080;9.476;2024-01-25T07:25:02;10.10;99.90
42479;DHT22;28110;47.080;9.476;2024-01-25T07:27:27;10.20;99.90
42479;DHT22;28110;47.080;9.476;2024-01-25T07:29:53;10.20;99.90
42479;DHT22;28110;47.080;9.476;2024-01-25T07:32:19;10.10;99.90
42479;DHT22;28110;47.080;9.476;2024-01-25T07:34:45;10.10;99.90
42479;DHT22;28110;47.080;9.476;2024-01-25T07:37:12;10.10;99.90
42479;DHT22;28110;47.080;9.476;2024-01-25T07:39:38;10.00;99.90
42479;DHT22;28110;47.080;9.476;2024-01-25T07:42:04;10.00;99.90
42479;DHT22;28110;47.080;9.476;2024-01-25T07:44:29;10.00;99.90
42479;DHT22;28110;47.080;9.476;2024-01-25T07:46:55;10.00;99.90
42479;DHT22;28110;47.080;9.476;2024-01-25T07:49:20;10.00;99.90
42479;DHT22;28110;47.080;9.476;2024-01-25T07:51:46;10.00;99.90
42479;DHT22;28110;47.080;9.476;2024-01-25T07:54:12;10.00;99.90
42479;DHT22;28110;47.080;9.476;2024-01-25T07:56:37;10.00;99.90
42479;DHT22;28110;47.080;9.476;2024-01-25T07:59:03;9.90;99.90
42479;DHT22;28110;47.080;9.476;2024-01-25T08:01:28;9.90;99.90
42479;DHT22;28110;47.080;9.476;2024-01-25T08:03:54;9.80;99.90
42479;DHT22;28110;47.080;9.476;2024-01-25T08:06:21;9.80;99.90
42479;DHT22;28110;47.080;9.476;2024-01-25T08:08:47;9.80;99.90
42479;DHT22;28110;47.080;9.476;2024-01-25T08:11:13;9.80;99.90
42479;DHT22;28110;47.080;9.476;2024-01-25T08:13:42;9.70;99.90
42479;DHT22;28110;47.080;9.476;2024-01-25T08:16:09;9.80;99.90
42479;DHT22;28110;47.080;9.476;2024-01-25T08:18:36;9.80;99.90
42479;DHT22;28110;47.080;9.476;2024-01-25T08:21:01;9.80;99.90
42479;DHT22;28110;47.080;9.476;2024-01-25T08:23:27;9.80;99.90
42479;DHT22;28110;47.080;9.476;2024-01-25T08:25:53;9.70;99.90
42479;DHT22;28110;47.080;9.476;2024-01-25T08:28:18;9.70;99.90
42479;DHT22;28110;47.080;9.476;2024-01-25T08:30:45;9.70;99.90
42479;DHT22;28110;47.080;9.476;2024-01-25T08:33:11;9.60;99.90
42479;DHT22;28110;47.080;9.476;2024-01-25T08:35:36;9.60;99.90
42479;DHT22;28110;47.080;9.476;2024-01-25T08:38:02;9.50;99.90
42479;DHT22;28110;47.080;9.476;2024-01-25T08:40:29;9.50;99.90
42479;DHT22;28110;47.080;9.476;2024-01-25T08:42:54;9.50;99.90
42479;DHT22;28110;47.080;9.476;2024-01-25T08:45:20;9.50;99.90
42479;DHT22;28110;47.080;9.476;2024-01-25T08:47:45;9.50;99.90
42479;DHT22;28110;47.080;9.476;2024-01-25T08:50:13;9.50;99.90
42479;DHT22;28110;47.080;9.476;2024-01-25T08:52:38;9.50;99.90
42479;DHT22;28110;47.080;9.476;2024-01-25T08:55:06;9.40;99.90
42479;DHT22;28110;47.080;9.476;2024-01-25T08:57:32;9.40;99.90
42479;DHT22;28110;47.080;9.476;2024-01-25T08:59:58;9.40;99.90
42479;DHT22;28110;47.080;9.476;2024-01-25T09:02:24;9.40;99.90
42479;DHT22;28110;47.080;9.476;2024-01-25T09:04:52;9.40;99.90
42479;DHT22;28110;47.080;9.476;2024-01-25T09:07:19;9.40;99.90
42479;DHT22;28110;47.080;9.476;2024-01-25T09:09:45;9.40;99.90
42479;DHT22;28110;47.080;9.476;2024-01-25T09:12:10;9.40;99.90
42479;DHT22;28110;47.080;9.476;2024-01-25T09:14:38;9.40;99.90
42479;DHT22;28110;47.080;9.476;2024-01-25T09:17:03;9.30;99.90
42479;DHT22;28110;47.080;9.476;2024-01-25T09:19:30;9.30;99.90
42479;DHT22;28110;47.080;9.476;2024-01-25T09:21:55;9.20;99.90
42479;DHT22;28110;47.080;9.476;2024-01-25T09:24:22;9.10;99.90
42479;DHT22;28110;47.080;9.476;2024-01-25T09:26:47;9.20;99.90
42479;DHT22;28110;47.080;9.476;2024-01-25T09:29:13;9.10;99.90
42479;DHT22;28110;47.080;9.476;2024-01-25T09:31:38;9.10;99.90
42479;DHT22;28110;47.080;9.476;2024-01-25T09:34:04;8.90;99.90
42479;DHT22;28110;47.080;9.476;2024-01-25T09:36:29;8.90;99.90
42479;DHT22;28110;47.080;9.476;2024-01-25T09:38:55;8.90;99.90
42479;DHT22;28110;47.080;9.476;2024-01-25T09:41:20;8.80;99.90
42479;DHT22;28110;47.080;9.476;2024-01-25T09:43:47;8.70;99.90
42479;DHT22;28110;47.080;9.476;2024-01-25T09:46:13;8.70;99.90
42479;DHT22;28110;47.080;9.476;2024-01-25T09:48:41;8.70;99.90
42479;DHT22;28110;47.080;9.476;2024-01-25T09:51:09;8.60;99.90
42479;DHT22;28110;47.080;9.476;2024-01-25T09:53:36;8.60;99.90
42479;DHT22;28110;47.080;9.476;2024-01-25T09:56:12;8.60;99.90
42479;DHT22;28110;47.080;9.476;2024-01-25T09:58:42;8.60;99.90
42479;DHT22;28110;47.080;9.476;2024-01-25T10:01:09;8.50;99.90
42479;DHT22;28110;47.080;9.476;2024-01-25T10:03:47;8.50;99.90
42479;DHT22;28110;47.080;9.476;2024-01-25T10:06:14;8.50;99.90
42479;DHT22;28110;47.080;9.476;2024-01-25T10:08:40;8.40;99.90
42479;DHT22;28110;47.080;9.476;2024-01-25T10:11:06;8.40;99.90
42479;DHT22;28110;47.080;9.476;2024-01-25T10:13:32;8.40;99.90
42479;DHT22;28110;47.080;9.476;2024-01-25T10:15:57;8.40;99.90
42479;DHT22;28110;47.080;9.476;2024-01-25T10:18:26;8.40;99.90
42479;DHT22;28110;47.080;9.476;2024-01-25T10:20:54;8.40;99.90
42479;DHT22;28110;47.080;9.476;2024-01-25T10:23:20;8.40;99.90
42479;DHT22;28110;47.080;9.476;2024-01-25T10:25:47;8.40;99.90
42479;DHT22;28110;47.080;9.476;2024-01-25T10:28:12;8.50;99.90
42479;DHT22;28110;47.080;9.476;2024-01-25T10:30:38;8.50;99.90
42479;DHT22;28110;47.080;9.476;2024-01-25T10:33:04;8.50;99.90
42479;DHT22;28110;47.080;9.476;2024-01-25T10:35:31;8.50;99.90
42479;DHT22;28110;47.080;9.476;2024-01-25T10:37:57;8.50;99.90
42479;DHT22;28110;47.080;9.476;2024-01-25T10:40:23;8.50;99.90
42479;DHT22;28110;47.080;9.476;2024-01-25T10:42:49;8.50;99.90
42479;DHT22;28110;47.080;9.476;2024-01-25T10:45:15;8.50;99.90
42479;DHT22;28110;47.080;9.476;2024-01-25T10:47:41;8.50;99.90
42479;DHT22;28110;47.080;9.476;2024-01-25T10:50:09;8.60;99.90
42479;DHT22;28110;47.080;9.476;2024-01-25T10:52:37;8.60;99.90
42479;DHT22;28110;47.080;9.476;2024-01-25T10:55:04;8.60;99.90
42479;DHT22;28110;47.080;9.476;2024-01-25T10:57:39;8.60;99.90
42479;DHT22;28110;47.080;9.476;2024-01-25T11:00:10;8.70;99.90
42479;DHT22;28110;47.080;9.476;2024-01-25T11:02:37;8.70;99.90
42479;DHT22;28110;47.080;9.476;2024-01-25T11:05:17;8.60;99.90
42479;DHT22;28110;47.080;9.476;2024-01-25T11:07:49;8.60;99.90
42479;DHT22;28110;47.080;9.476;2024-01-25T11:10:22;8.60;99.90
42479;DHT22;28110;47.080;9.476;2024-01-25T11:12:50;8.70;99.90
42479;DHT22;28110;47.080;9.476;2024-01-25T11:15:23;8.70;99.90
42479;DHT22;28110;47.080;9.476;2024-01-25T11:17:53;8.60;99.90
42479;DHT22;28110;47.080;9.476;2024-01-25T11:20:27;8.60;99.90
42479;DHT22;28110;47.080;9.476;2024-01-25T11:22:57;8.60;99.90
42479;DHT22;28110;47.080;9.476;2024-01-25T11:25:27;8.50;99.90
42479;DHT22;28110;47.080;9.476;2024-01-25T11:27:54;8.60;99.90
42479;DHT22;28110;47.080;9.476;2024-01-25T11:30:20;8.60;99.90
42479;DHT22;28110;47.080;9.476;2024-01-25T11:32:46;8.60;99.90
42479;DHT22;28110;47.080;9.476;2024-01-25T11:35:13;8.70;99.90
42479;DHT22;28110;47.080;9.476;2024-01-25T11:37:46;8.60;99.90
42479;DHT22;28110;47.080;9.476;2024-01-25T11:40:13;8.70;99.90
42479;DHT22;28110;47.080;9.476;2024-01-25T11:42:39;8.70;99.90
42479;DHT22;28110;47.080;9.476;2024-01-25T11:45:10;8.70;99.90
42479;DHT22;28110;47.080;9.476;2024-01-25T11:47:37;8.70;99.90
42479;DHT22;28110;47.080;9.476;2024-01-25T11:50:04;8.70;99.90
42479;DHT22;28110;47.080;9.476;2024-01-25T11:52:30;8.70;99.90
42479;DHT22;28110;47.080;9.476;2024-01-25T11:54:58;8.70;99.90
42479;DHT22;28110;47.080;9.476;2024-01-25T11:57:23;8.80;99.90
42479;DHT22;28110;47.080;9.476;2024-01-25T11:59:49;8.80;99.90
42479;DHT22;28110;47.080;9.476;2024-01-25T12:02:15;8.90;99.90
42479;DHT22;28110;47.080;9.476;2024-01-25T12:04:41;8.90;99.90
42479;DHT22;28110;47.080;9.476;2024-01-25T12:07:07;8.90;99.90
42479;DHT22;28110;47.080;9.476;2024-01-25T12:09:33;8.90;99.90
42479;DHT22;28110;47.080;9.476;2024-01-25T12:12:00;8.90;99.90
42479;DHT22;28110;47.080;9.476;2024-01-25T12:14:27;8.90;99.90
42479;DHT22;28110;47.080;9.476;2024-01-25T12:16:55;8.90;99.90
42479;DHT22;28110;47.080;9.476;2024-01-25T12:19:21;8.90;99.90
42479;DHT22;28110;47.080;9.476;2024-01-25T12:21:47;8.90;99.90
42479;DHT22;28110;47.080;9.476;2024-01-25T12:24:13;8.90;99.90
42479;DHT22;28110;47.080;9.476;2024-01-25T12:26:39;9.00;99.90
42479;DHT22;28110;47.080;9.476;2024-01-25T12:29:06;9.00;99.90
42479;DHT22;28110;47.080;9.476;2024-01-25T12:31:33;9.00;99.90
42479;DHT22;28110;47.080;9.476;2024-01-25T12:34:00;9.00;99.90
42479;DHT22;28110;47.080;9.476;2024-01-25T12:36:26;9.00;99.90
42479;DHT22;28110;47.080;9.476;2024-01-25T12:38:51;9.00;99.90
42479;DHT22;28110;47.080;9.476;2024-01-25T12:41:17;9.00;99.90
42479;DHT22;28110;47.080;9.476;2024-01-25T12:43:43;9.10;99.90
42479;DHT22;28110;47.080;9.476;2024-01-25T12:46:08;9.10;99.90
42479;DHT22;28110;47.080;9.476;2024-01-25T12:48:34;9.10;99.90
42479;DHT22;28110;47.080;9.476;2024-01-25T12:50:59;9.00;99.90
42479;DHT22;28110;47.080;9.476;2024-01-25T12:53:25;9.10;99.90
42479;DHT22;28110;47.080;9.476;2024-01-25T12:55:50;9.10;99.90
42479;DHT22;28110;47.080;9.476;2024-01-25T12:58:16;9.10;99.90
42479;DHT22;28110;47.080;9.476;2024-01-25T13:00:41;9.10;99.90
42479;DHT22;28110;47.080;9.476;2024-01-25T13:03:08;9.10;99.90
42479;DHT22;28110;47.080;9.476;2024-01-25T13:05:34;9.10;99.90
42479;DHT22;28110;47.080;9.476;2024-01-25T13:08:02;9.10;99.90
42479;DHT22;28110;47.080;9.476;2024-01-25T13:10:28;9.10;99.90
42479;DHT22;28110;47.080;9.476;2024-01-25T13:12:54;9.10;99.90
42479;DHT22;28110;47.080;9.476;2024-01-25T13:15:20;9.10;99.90
42479;DHT22;28110;47.080;9.476;2024-01-25T13:17:45;9.10;99.90
42479;DHT22;28110;47.080;9.476;2024-01-25T13:20:11;9.10;99.90
42479;DHT22;28110;47.080;9.476;2024-01-25T13:22:37;9.10;99.90
42479;DHT22;28110;47.080;9.476;2024-01-25T13:25:03;9.10;99.90
42479;DHT22;28110;47.080;9.476;2024-01-25T13:27:29;9.10;99.90
42479;DHT22;28110;47.080;9.476;2024-01-25T13:29:55;9.20;99.90
42479;DHT22;28110;47.080;9.476;2024-01-25T13:32:22;9.20;99.90
42479;DHT22;28110;47.080;9.476;2024-01-25T13:34:49;9.30;99.90
42479;DHT22;28110;47.080;9.476;2024-01-25T13:37:15;9.20;99.90
42479;DHT22;28110;47.080;9.476;2024-01-25T13:39:40;9.20;99.90
42479;DHT22;28110;47.080;9.476;2024-01-25T13:42:06;9.30;99.90
42479;DHT22;28110;47.080;9.476;2024-01-25T13:44:31;9.20;99.90
42479;DHT22;28110;47.080;9.476;2024-01-25T13:46:57;9.20;99.90
42479;DHT22;28110;47.080;9.476;2024-01-25T13:49:24;9.30;99.90
42479;DHT22;28110;47.080;9.476;2024-01-25T13:51:49;9.30;99.90
42479;DHT22;28110;47.080;9.476;2024-01-25T13:54:15;9.30;99.90
42479;DHT22;28110;47.080;9.476;2024-01-25T13:56:40;9.30;99.90
42479;DHT22;28110;47.080;9.476;2024-01-25T13:59:06;9.30;99.90
42479;DHT22;28110;47.080;9.476;2024-01-25T14:01:32;9.40;99.90
42479;DHT22;28110;47.080;9.476;2024-01-25T14:03:57;9.40;99.90
42479;DHT22;28110;47.080;9.476;2024-01-25T14:06:23;9.40;99.90
42479;DHT22;28110;47.080;9.476;2024-01-25T14:08:48;9.30;99.90
42479;DHT22;28110;47.080;9.476;2024-01-25T14:11:15;9.30;99.90
42479;DHT22;28110;47.080;9.476;2024-01-25T14:13:41;9.40;99.90
42479;DHT22;28110;47.080;9.476;2024-01-25T14:16:07;9.50;99.90
42479;DHT22;28110;47.080;9.476;2024-01-25T14:18:38;9.50;99.90
42479;DHT22;28110;47.080;9.476;2024-01-25T14:21:04;9.60;99.90
42479;DHT22;28110;47.080;9.476;2024-01-25T14:23:30;9.60;99.90
42479;DHT22;28110;47.080;9.476;2024-01-25T14:25:55;9.60;99.90
42479;DHT22;28110;47.080;9.476;2024-01-25T14:28:21;9.70;99.90
42479;DHT22;28110;47.080;9.476;2024-01-25T14:30:46;9.70;99.90
42479;DHT22;28110;47.080;9.476;2024-01-25T14:33:13;9.80;99.90
42479;DHT22;28110;47.080;9.476;2024-01-25T14:35:39;9.80;99.90
42479;DHT22;28110;47.080;9.476;2024-01-25T14:38:04;9.90;99.90
42479;DHT22;28110;47.080;9.476;2024-01-25T14:40:30;9.90;99.90
42479;DHT22;28110;47.080;9.476;2024-01-25T14:42:56;9.90;99.90
42479;DHT22;28110;47.080;9.476;2024-01-25T14:45:21;9.80;99.90
42479;DHT22;28110;47.080;9.476;2024-01-25T14:47:47;9.80;99.90
42479;DHT22;28110;47.080;9.476;2024-01-25T14:50:12;9.80;99.90
42479;DHT22;28110;47.080;9.476;2024-01-25T14:52:38;9.80;99.90
42479;DHT22;28110;47.080;9.476;2024-01-25T14:55:04;9.80;99.90
42479;DHT22;28110;47.080;9.476;2024-01-25T14:57:30;9.80;99.90
42479;DHT22;28110;47.080;9.476;2024-01-25T14:59:55;9.80;99.90
42479;DHT22;28110;47.080;9.476;2024-01-25T15:02:21;9.80;99.90
42479;DHT22;28110;47.080;9.476;2024-01-25T15:04:47;9.80;99.90
42479;DHT22;28110;47.080;9.476;2024-01-25T15:07:12;9.80;99.90
42479;DHT22;28110;47.080;9.476;2024-01-25T15:09:39;9.80;99.90
42479;DHT22;28110;47.080;9.476;2024-01-25T15:12:05;9.80;99.90
42479;DHT22;28110;47.080;9.476;2024-01-25T15:14:31;9.80;99.90
42479;DHT22;28110;47.080;9.476;2024-01-25T15:16:56;9.80;99.90
42479;DHT22;28110;47.080;9.476;2024-01-25T15:19:22;9.80;99.90
42479;DHT22;28110;47.080;9.476;2024-01-25T15:21:48;9.70;99.90
42479;DHT22;28110;47.080;9.476;2024-01-25T15:24:13;9.70;99.90
42479;DHT22;28110;47.080;9.476;2024-01-25T15:26:42;9.70;99.90
42479;DHT22;28110;47.080;9.476;2024-01-25T15:29:08;9.70;99.90
42479;DHT22;28110;47.080;9.476;2024-01-25T15:31:34;9.70;99.90